createdAt,value
2023-04-29T00:01:33.280Z,4.73
2023-04-29T00:04:00.637Z,5.30
2023-04-29T00:06:28.754Z,5.60
2023-04-29T00:08:56.108Z,5.07
2023-04-29T00:11:23.356Z,6.00
2023-04-29T00:13:50.638Z,5.63
2023-04-29T00:16:17.950Z,5.77
2023-04-29T00:18:45.348Z,5.67
2023-04-29T00:21:12.688Z,5.03
2023-04-29T00:23:39.895Z,5.40
2023-04-29T00:26:07.485Z,6.43
2023-04-29T00:28:34.788Z,5.20
2023-04-29T00:31:02.024Z,6.90
2023-04-29T00:33:29.244Z,6.07
2023-04-29T00:35:56.752Z,6.30
2023-04-29T00:38:23.936Z,5.67
2023-04-29T00:40:51.620Z,5.77
2023-04-29T00:43:18.750Z,6.00
2023-04-29T00:45:47.148Z,5.23
2023-04-29T00:48:15.752Z,5.53
2023-04-29T00:50:43.271Z,5.40
2023-04-29T00:53:13.117Z,5.53
2023-04-29T00:55:43.066Z,6.17
2023-04-29T00:58:12.200Z,6.40
2023-04-29T01:00:39.726Z,5.77
2023-04-29T01:03:07.029Z,6.03
2023-04-29T01:05:34.348Z,6.00
2023-04-29T01:08:44.582Z,5.90
2023-04-29T01:11:13.717Z,6.30
2023-04-29T01:14:03.573Z,6.63
2023-04-29T01:16:42.023Z,6.13
2023-04-29T01:19:40.763Z,6.53
2023-04-29T01:22:07.982Z,6.23
2023-04-29T01:24:35.150Z,6.37
2023-04-29T01:27:34.332Z,7.17
2023-04-29T01:30:39.329Z,6.47
2023-04-29T01:33:23.831Z,6.83
2023-04-29T01:35:59.861Z,6.40
2023-04-29T01:38:54.152Z,6.93
2023-04-29T01:41:45.460Z,6.73
2023-04-29T01:44:24.175Z,7.07
2023-04-29T01:46:54.497Z,6.80
2023-04-29T01:49:29.396Z,6.63
2023-04-29T01:51:57.499Z,7.60
2023-04-29T01:54:25.799Z,6.67
2023-04-29T01:56:53.551Z,7.10
2023-04-29T01:59:21.221Z,6.57
2023-04-29T02:01:48.632Z,6.60
2023-04-29T02:04:15.845Z,6.80
2023-04-29T02:06:44.846Z,7.13
2023-04-29T02:09:12.068Z,7.20
2023-04-29T02:11:39.828Z,7.20
2023-04-29T02:14:07.091Z,7.67
2023-04-29T02:16:34.341Z,6.80
2023-04-29T02:19:01.583Z,6.90
2023-04-29T02:21:28.708Z,6.83
2023-04-29T02:23:56.027Z,7.73
2023-04-29T02:26:24.179Z,9.57
2023-04-29T02:28:52.721Z,7.57
2023-04-29T02:31:20.345Z,7.10
2023-04-29T02:33:47.651Z,6.67
2023-04-29T02:36:14.900Z,7.03
2023-04-29T02:38:42.181Z,7.07
2023-04-29T02:41:09.388Z,7.13
2023-04-29T02:43:37.123Z,6.67
2023-04-29T02:46:04.533Z,6.60
2023-04-29T02:48:31.865Z,7.07
2023-04-29T02:50:59.151Z,6.90
2023-04-29T02:53:26.509Z,7.13
2023-04-29T02:55:53.914Z,6.83
2023-04-29T02:58:21.127Z,7.67
2023-04-29T03:00:48.382Z,6.87
2023-04-29T03:03:16.283Z,7.07
2023-04-29T03:05:43.662Z,6.83
2023-04-29T03:08:10.844Z,6.60
2023-04-29T03:10:41.369Z,7.17
2023-04-29T03:13:09.120Z,6.50
2023-04-29T03:15:37.438Z,6.53
2023-04-29T03:18:05.514Z,7.17
2023-04-29T03:20:33.003Z,7.77
2023-04-29T03:23:01.160Z,7.27
2023-04-29T03:25:28.885Z,7.10
2023-04-29T03:27:56.074Z,7.63
2023-04-29T03:30:23.482Z,6.90
2023-04-29T03:32:50.943Z,7.07
2023-04-29T03:35:18.755Z,7.40
2023-04-29T03:37:45.918Z,7.00
2023-04-29T03:40:13.772Z,8.33
2023-04-29T03:42:41.540Z,6.90
2023-04-29T03:45:09.529Z,7.03
2023-04-29T03:47:36.925Z,7.07
2023-04-29T03:50:04.847Z,7.47
2023-04-29T03:52:32.331Z,7.63
2023-04-29T03:54:59.569Z,7.07
2023-04-29T03:57:27.194Z,7.50
2023-04-29T03:59:54.819Z,7.40
2023-04-29T04:02:22.325Z,10.90
2023-04-29T04:04:49.836Z,7.63
2023-04-29T04:07:17.207Z,10.63
2023-04-29T04:09:44.487Z,7.97
2023-04-29T04:12:11.828Z,7.50
2023-04-29T04:14:39.713Z,7.37
2023-04-29T04:17:07.489Z,7.97
2023-04-29T04:19:34.926Z,7.83
2023-04-29T04:22:05.760Z,7.87
2023-04-29T04:24:32.916Z,17.33
2023-04-29T04:27:00.113Z,8.07
2023-04-29T04:29:27.279Z,7.43
2023-04-29T04:31:54.926Z,7.70
2023-04-29T04:34:22.166Z,8.47
2023-04-29T04:36:49.646Z,9.43
2023-04-29T04:39:17.097Z,8.63
2023-04-29T04:41:44.679Z,8.80
2023-04-29T04:44:12.089Z,8.30
2023-04-29T04:46:39.448Z,8.20
2023-04-29T04:49:07.282Z,7.50
2023-04-29T04:51:34.595Z,13.27
2023-04-29T04:54:01.791Z,8.67
2023-04-29T04:56:28.994Z,7.97
2023-04-29T04:58:56.220Z,15.07
2023-04-29T05:01:23.465Z,7.73
2023-04-29T05:03:50.889Z,19.33
2023-04-29T05:06:18.340Z,9.53
2023-04-29T05:08:45.569Z,8.73
2023-04-29T05:11:19.855Z,9.10
2023-04-29T05:13:47.668Z,8.10
2023-04-29T05:16:15.681Z,8.03
2023-04-29T05:18:45.988Z,9.30
2023-04-29T05:21:17.098Z,12.43
2023-04-29T05:23:45.086Z,8.07
2023-04-29T05:26:12.262Z,7.97
2023-04-29T05:28:39.602Z,7.97
2023-04-29T05:31:06.928Z,8.43
2023-04-29T05:33:34.615Z,8.10
2023-04-29T05:36:02.372Z,8.47
2023-04-29T05:38:29.701Z,8.13
2023-04-29T05:40:57.252Z,8.03
2023-04-29T05:43:25.108Z,8.10
2023-04-29T05:45:52.467Z,8.23
2023-04-29T05:48:19.727Z,8.87
2023-04-29T05:50:48.467Z,7.77
2023-04-29T05:53:15.780Z,8.33
2023-04-29T05:55:45.293Z,7.80
2023-04-29T05:58:13.428Z,9.17
2023-04-29T06:00:41.069Z,7.97
2023-04-29T06:03:08.457Z,8.67
2023-04-29T06:05:36.041Z,7.33
2023-04-29T06:08:04.693Z,8.23
2023-04-29T06:10:33.520Z,7.83
2023-04-29T06:13:00.973Z,8.20
2023-04-29T06:15:28.597Z,6.73
2023-04-29T06:17:56.024Z,7.80
2023-04-29T06:20:23.831Z,7.27
2023-04-29T06:22:51.055Z,6.97
2023-04-29T06:25:18.353Z,8.13
2023-04-29T06:27:45.579Z,17.07
2023-04-29T06:30:13.235Z,11.47
2023-04-29T06:32:41.046Z,7.47
2023-04-29T06:35:08.909Z,7.63
2023-04-29T06:37:37.934Z,12.43
2023-04-29T06:40:07.333Z,12.93
2023-04-29T06:42:34.928Z,7.43
2023-04-29T06:45:02.414Z,7.33
2023-04-29T06:47:29.676Z,18.63
2023-04-29T06:49:57.464Z,9.63
2023-04-29T06:52:24.766Z,6.30
2023-04-29T06:54:52.841Z,8.20
2023-04-29T06:57:21.117Z,5.80
2023-04-29T06:59:48.951Z,5.73
2023-04-29T07:02:16.673Z,6.70
2023-04-29T07:04:44.006Z,5.40
2023-04-29T07:07:11.379Z,6.47
2023-04-29T07:09:38.704Z,5.70
2023-04-29T07:12:06.781Z,5.40
2023-04-29T07:14:34.546Z,4.97
2023-04-29T07:17:01.868Z,5.20
2023-04-29T07:19:29.208Z,5.30
2023-04-29T07:21:57.674Z,4.63
2023-04-29T07:24:25.577Z,3.80
2023-04-29T07:26:53.265Z,4.40
2023-04-29T07:29:21.021Z,7.27
2023-04-29T07:31:48.383Z,4.30
2023-04-29T07:34:15.880Z,10.27
2023-04-29T07:36:43.221Z,3.00
2023-04-29T07:39:12.648Z,3.10
2023-04-29T07:41:40.095Z,3.40
2023-04-29T07:44:07.818Z,3.60
2023-04-29T07:46:35.137Z,3.97
2023-04-29T07:49:02.467Z,3.40
2023-04-29T07:51:30.032Z,6.13
2023-04-29T07:53:57.240Z,3.67
2023-04-29T07:56:25.908Z,4.07
2023-04-29T07:58:55.080Z,3.70
2023-04-29T08:01:22.207Z,3.30
2023-04-29T08:03:49.836Z,3.13
2023-04-29T08:06:18.561Z,3.20
2023-04-29T08:08:45.904Z,3.33
2023-04-29T08:11:20.926Z,3.57
2023-04-29T08:13:48.729Z,3.10
2023-04-29T08:16:16.245Z,3.03
2023-04-29T08:18:44.084Z,2.70
2023-04-29T08:21:14.384Z,2.90
2023-04-29T08:23:41.712Z,3.30
2023-04-29T08:26:11.291Z,3.60
2023-04-29T08:28:38.741Z,4.07
2023-04-29T08:31:10.936Z,4.20
2023-04-29T08:33:38.427Z,4.63
2023-04-29T08:36:06.946Z,4.40
2023-04-29T08:38:34.149Z,4.80
2023-04-29T08:41:02.250Z,4.83
2023-04-29T08:43:29.761Z,5.27
2023-04-29T08:45:59.954Z,5.27
2023-04-29T08:48:29.694Z,6.03
2023-04-29T08:50:58.917Z,10.57
2023-04-29T08:53:26.438Z,7.00
2023-04-29T08:55:54.903Z,6.40
2023-04-29T08:58:25.130Z,9.43
2023-04-29T09:00:53.066Z,8.13
2023-04-29T09:03:56.514Z,10.43
2023-04-29T09:06:23.908Z,14.17
2023-04-29T09:08:51.338Z,6.70
2023-04-29T09:11:20.076Z,6.10
2023-04-29T09:13:47.870Z,16.17
2023-04-29T09:16:15.409Z,34.53
2023-04-29T09:18:47.817Z,23.10
2023-04-29T09:21:21.953Z,7.43
2023-04-29T09:23:58.233Z,7.20
2023-04-29T09:26:26.470Z,6.40
2023-04-29T09:29:18.674Z,7.73
2023-04-29T09:31:46.786Z,6.57
2023-04-29T09:34:17.560Z,7.20
2023-04-29T09:36:50.132Z,7.93
2023-04-29T09:39:22.699Z,7.77
2023-04-29T09:41:52.980Z,7.83
2023-04-29T09:44:34.260Z,6.50
2023-04-29T09:47:07.203Z,14.60
2023-04-29T09:49:42.866Z,6.87
2023-04-29T09:52:13.041Z,7.30
2023-04-29T09:54:45.274Z,7.40
2023-04-29T09:57:16.428Z,8.00
2023-04-29T09:59:43.968Z,7.43
2023-04-29T10:02:18.676Z,7.00
2023-04-29T10:04:49.788Z,6.37
2023-04-29T10:07:18.639Z,5.10
2023-04-29T10:09:49.791Z,4.20
2023-04-29T10:12:18.969Z,3.67
2023-04-29T10:15:14.071Z,4.50
2023-04-29T10:17:49.858Z,3.60
2023-04-29T10:20:24.601Z,3.97
2023-04-29T10:22:57.380Z,4.10
2023-04-29T10:25:26.682Z,3.43
2023-04-29T10:27:55.344Z,3.00
2023-04-29T10:30:22.952Z,3.50
2023-04-29T10:32:52.722Z,3.60
2023-04-29T10:35:26.112Z,3.47
2023-04-29T10:37:54.608Z,3.95
2023-04-29T10:40:46.889Z,2.75
2023-04-29T10:43:14.790Z,3.22
2023-04-29T10:45:42.173Z,3.60
2023-04-29T10:48:13.029Z,3.70
2023-04-29T10:50:49.470Z,3.65
2023-04-29T10:53:21.294Z,3.85
2023-04-29T10:56:17.092Z,3.78
2023-04-29T10:58:49.283Z,3.90
2023-04-29T11:01:19.614Z,3.50
2023-04-29T11:03:48.957Z,4.65
2023-04-29T11:06:16.963Z,4.28
2023-04-29T11:08:45.492Z,4.10
2023-04-29T11:11:15.026Z,3.80
2023-04-29T11:13:47.254Z,4.35
2023-04-29T11:16:14.683Z,4.00
2023-04-29T11:19:10.766Z,5.60
2023-04-29T11:21:38.563Z,4.72
2023-04-29T11:24:07.292Z,3.80
2023-04-29T11:26:38.661Z,3.50
2023-04-29T11:29:11.637Z,3.60
2023-04-29T11:31:42.259Z,3.90
2023-04-29T11:34:09.812Z,4.10
2023-04-29T11:36:37.717Z,3.90
2023-04-29T11:39:08.501Z,3.83
2023-04-29T11:41:36.774Z,3.10
2023-04-29T11:44:05.781Z,3.42
2023-04-29T11:46:33.286Z,3.42
2023-04-29T11:49:00.871Z,4.22
2023-04-29T11:51:28.966Z,5.38
2023-04-29T11:53:58.230Z,4.50
2023-04-29T11:56:26.097Z,5.18
2023-04-29T11:58:58.281Z,4.88
2023-04-29T12:01:27.313Z,3.72
2023-04-29T12:04:02.913Z,3.92
2023-04-29T12:06:30.819Z,2.92
2023-04-29T12:09:00.516Z,2.80
2023-04-29T12:11:29.204Z,2.60
2023-04-29T12:13:58.238Z,2.70
2023-04-29T12:16:26.053Z,5.35
2023-04-29T12:18:54.242Z,2.97
2023-04-29T12:21:23.061Z,3.15
2023-04-29T12:23:51.972Z,4.07
2023-04-29T12:26:21.383Z,3.05
2023-04-29T12:28:54.224Z,13.52
2023-04-29T12:31:24.418Z,6.70
2023-04-29T12:33:56.867Z,11.68
2023-04-29T12:36:27.399Z,11.98
2023-04-29T12:38:56.192Z,4.35
2023-04-29T12:41:41.567Z,4.70
2023-04-29T12:44:11.658Z,4.10
2023-04-29T12:46:41.762Z,6.03
2023-04-29T12:49:09.471Z,4.85
2023-04-29T12:51:38.994Z,4.10
2023-04-29T12:54:10.420Z,3.60
2023-04-29T12:56:39.083Z,3.63
2023-04-29T12:59:10.787Z,3.65
2023-04-29T13:01:40.083Z,3.83
2023-04-29T13:04:09.315Z,3.65
2023-04-29T13:06:41.521Z,3.20
2023-04-29T13:09:18.297Z,3.90
2023-04-29T13:11:46.937Z,3.97
2023-04-29T13:14:14.924Z,3.17
2023-04-29T13:16:42.286Z,3.55
2023-04-29T13:19:29.469Z,3.03
2023-04-29T13:21:57.920Z,2.97
2023-04-29T13:24:25.561Z,6.32
2023-04-29T13:26:53.282Z,4.47
2023-04-29T13:29:21.095Z,3.95
2023-04-29T13:31:48.486Z,3.10
2023-04-29T13:34:16.275Z,3.10
2023-04-29T13:36:43.548Z,3.33
2023-04-29T13:39:10.704Z,2.67
2023-04-29T13:41:43.855Z,2.92
2023-04-29T13:44:21.571Z,3.40
2023-04-29T13:46:52.463Z,3.40
2023-04-29T13:49:45.374Z,4.28
2023-04-29T13:52:37.576Z,3.60
2023-04-29T13:55:38.223Z,4.00
2023-04-29T14:00:31.936Z,5.60
2023-04-29T14:03:12.995Z,6.88
2023-04-29T14:05:42.770Z,4.03
2023-04-29T14:08:10.366Z,3.50
2023-04-29T14:10:38.244Z,3.65
2023-04-29T14:13:06.664Z,3.53
2023-04-29T14:15:33.949Z,3.42
2023-04-29T14:18:01.751Z,3.10
2023-04-29T14:20:28.920Z,2.95
2023-04-29T14:22:56.664Z,3.95
2023-04-29T14:25:24.560Z,2.90
2023-04-29T14:27:53.492Z,3.17
2023-04-29T14:30:20.810Z,3.25
2023-04-29T14:32:48.121Z,8.23
2023-04-29T14:35:15.806Z,7.38
2023-04-29T14:37:43.079Z,18.15
2023-04-29T14:40:10.604Z,15.43
2023-04-29T14:42:38.079Z,3.45
2023-04-29T14:45:07.870Z,11.68
2023-04-29T14:47:35.267Z,4.07
2023-04-29T14:50:03.003Z,5.85
2023-04-29T14:52:30.749Z,3.13
2023-04-29T14:54:58.087Z,2.90
2023-04-29T14:57:25.416Z,3.40
2023-04-29T14:59:53.273Z,4.88
2023-04-29T15:02:21.082Z,4.32
2023-04-29T15:04:49.325Z,3.70
2023-04-29T15:07:16.889Z,4.33
2023-04-29T15:09:44.046Z,4.20
2023-04-29T15:12:11.772Z,2.73
2023-04-29T15:14:39.085Z,6.03
2023-04-29T15:17:06.619Z,3.65
2023-04-29T15:19:34.209Z,5.67
2023-04-29T15:22:01.441Z,2.63
2023-04-29T15:24:28.710Z,2.77
2023-04-29T15:26:56.193Z,3.80
2023-04-29T15:29:23.690Z,4.67
2023-04-29T15:31:52.031Z,3.80
2023-04-29T15:34:19.598Z,5.40
2023-04-29T15:36:46.909Z,20.20
2023-04-29T15:39:17.037Z,5.57
2023-04-29T15:41:44.387Z,3.63
2023-04-29T15:44:12.704Z,3.50
2023-04-29T15:46:40.127Z,4.17
2023-04-29T15:49:07.374Z,4.23
2023-04-29T15:51:34.621Z,4.40
2023-04-29T15:54:01.958Z,6.00
2023-04-29T15:56:30.697Z,6.63
2023-04-29T15:58:57.919Z,7.40
2023-04-29T16:01:25.390Z,6.07
2023-04-29T16:03:52.846Z,9.23
2023-04-29T16:06:20.181Z,9.83
2023-04-29T16:08:48.295Z,7.27
2023-04-29T16:11:16.056Z,8.57
2023-04-29T16:13:43.545Z,8.40
2023-04-29T16:16:10.898Z,10.20
2023-04-29T16:18:38.182Z,8.30
2023-04-29T16:21:08.995Z,7.83
2023-04-29T16:23:36.146Z,8.20
2023-04-29T16:26:03.632Z,10.27
2023-04-29T16:28:31.255Z,6.10
2023-04-29T16:30:58.492Z,5.43
2023-04-29T16:33:25.862Z,2.77
2023-04-29T16:35:54.518Z,3.60
2023-04-29T16:38:22.052Z,3.43
2023-04-29T16:40:50.745Z,3.03
2023-04-29T16:43:18.520Z,2.30
2023-04-29T16:45:47.681Z,2.00
2023-04-29T16:48:14.967Z,1.90
2023-04-29T16:50:42.363Z,1.60
2023-04-29T16:53:09.587Z,2.27
2023-04-29T16:55:36.957Z,2.67
2023-04-29T16:58:07.458Z,2.50
2023-04-29T17:00:34.806Z,2.63
2023-04-29T17:03:02.286Z,2.43
2023-04-29T17:05:30.082Z,2.60
2023-04-29T17:07:57.365Z,2.50
2023-04-29T17:10:25.260Z,3.07
2023-04-29T17:12:52.692Z,2.87
2023-04-29T17:15:20.004Z,2.77
2023-04-29T17:17:47.243Z,2.33
2023-04-29T17:20:15.038Z,2.20
2023-04-29T17:22:42.384Z,2.50
2023-04-29T17:25:10.627Z,2.40
2023-04-29T17:27:38.043Z,3.00
2023-04-29T17:30:06.785Z,3.33
2023-04-29T17:32:39.310Z,3.13
2023-04-29T17:35:10.930Z,3.40
2023-04-29T17:37:38.219Z,3.43
2023-04-29T17:40:06.710Z,3.60
2023-04-29T17:42:33.918Z,3.50
2023-04-29T17:45:01.579Z,4.30
2023-04-29T17:47:31.843Z,5.30
2023-04-29T17:50:01.751Z,6.10
2023-04-29T17:52:29.792Z,4.87
2023-04-29T17:54:57.097Z,4.90
2023-04-29T17:57:24.461Z,5.03
2023-04-29T17:59:52.922Z,4.80
2023-04-29T18:02:20.379Z,4.90
2023-04-29T18:04:47.738Z,5.13
2023-04-29T18:07:15.200Z,5.33
2023-04-29T18:09:45.694Z,6.53
2023-04-29T18:12:12.977Z,6.50
2023-04-29T18:14:40.222Z,6.57
2023-04-29T18:17:07.695Z,7.37
2023-04-29T18:19:35.258Z,8.03
2023-04-29T18:22:03.516Z,8.70
2023-04-29T18:24:31.432Z,9.37
2023-04-29T18:26:58.739Z,9.60
2023-04-29T18:29:26.608Z,8.60
2023-04-29T18:31:55.300Z,8.67
2023-04-29T18:34:22.590Z,8.70
2023-04-29T18:36:50.141Z,8.23
2023-04-29T18:39:18.660Z,8.07
2023-04-29T18:41:46.060Z,9.07
2023-04-29T18:44:13.418Z,8.27
2023-04-29T18:46:41.326Z,9.00
2023-04-29T18:49:11.967Z,8.87
2023-04-29T18:51:43.352Z,8.80
2023-04-29T18:54:10.910Z,9.07
2023-04-29T18:56:40.295Z,9.17
2023-04-29T18:59:10.187Z,9.07
2023-04-29T19:01:40.411Z,9.97
2023-04-29T19:04:11.131Z,9.17
2023-04-29T19:06:39.022Z,9.70
2023-04-29T19:09:06.947Z,10.00
2023-04-29T19:11:34.317Z,9.80
2023-04-29T19:14:01.612Z,10.23
2023-04-29T19:16:28.949Z,10.50
2023-04-29T19:18:56.194Z,10.23
2023-04-29T19:21:23.643Z,9.03
2023-04-29T19:23:53.962Z,9.80
2023-04-29T19:26:21.908Z,8.43
2023-04-29T19:28:49.890Z,7.13
2023-04-29T19:31:17.480Z,7.23
2023-04-29T19:33:44.747Z,5.80
2023-04-29T19:36:13.795Z,6.50
2023-04-29T19:38:41.098Z,6.17
2023-04-29T19:41:08.351Z,7.23
2023-04-29T19:43:39.334Z,6.63
2023-04-29T19:46:07.042Z,6.87
2023-04-29T19:48:34.394Z,6.93
2023-04-29T19:51:02.395Z,7.60
2023-04-29T19:53:31.698Z,7.47
2023-04-29T19:55:59.122Z,9.90
2023-04-29T19:58:26.585Z,8.77
2023-04-29T20:00:53.995Z,10.40
2023-04-29T20:03:21.998Z,10.70
2023-04-29T20:05:49.688Z,10.57
2023-04-29T20:08:20.097Z,12.13
2023-04-29T20:10:48.434Z,11.60
2023-04-29T20:13:16.057Z,11.63
2023-04-29T20:15:44.013Z,11.90
2023-04-29T20:18:11.764Z,10.43
2023-04-29T20:20:39.430Z,11.33
2023-04-29T20:23:07.424Z,12.33
2023-04-29T20:25:34.794Z,13.03
2023-04-29T20:28:02.268Z,14.13
2023-04-29T20:30:29.883Z,16.00
2023-04-29T20:32:57.117Z,14.70
2023-04-29T20:35:24.896Z,15.87
2023-04-29T20:37:52.133Z,17.33
2023-04-29T20:40:19.803Z,17.57
2023-04-29T20:42:48.658Z,17.33
2023-04-29T20:45:16.424Z,19.33
2023-04-29T20:47:44.647Z,19.47
2023-04-29T20:50:12.285Z,21.10
2023-04-29T20:52:40.313Z,22.77
2023-04-29T20:55:08.449Z,23.23
2023-04-29T20:57:35.776Z,22.97
2023-04-29T21:00:03.089Z,24.07
2023-04-29T21:02:30.993Z,25.23
2023-04-29T21:04:58.258Z,27.00
2023-04-29T21:07:28.294Z,26.90
2023-04-29T21:09:56.438Z,27.17
2023-04-29T21:12:25.117Z,27.00
2023-04-29T21:14:52.292Z,27.80
2023-04-29T21:17:19.396Z,28.27
2023-04-29T21:19:47.120Z,28.53
2023-04-29T21:22:14.359Z,27.90
2023-04-29T21:24:41.849Z,29.87
2023-04-29T21:27:09.313Z,30.73
2023-04-29T21:29:41.008Z,30.73
2023-04-29T21:32:09.165Z,30.47
2023-04-29T21:34:36.509Z,30.93
2023-04-29T21:37:03.796Z,30.93
2023-04-29T21:39:32.585Z,29.90
2023-04-29T21:42:01.558Z,31.33
2023-04-29T21:44:29.428Z,30.83
2023-04-29T21:46:59.943Z,30.53
2023-04-29T21:49:28.557Z,30.03
2023-04-29T21:51:56.624Z,30.03
2023-04-29T21:54:24.026Z,29.00
2023-04-29T21:56:51.350Z,29.93
2023-04-29T21:59:18.934Z,31.93
2023-04-29T22:01:46.159Z,32.57
2023-04-29T22:04:13.588Z,33.80
2023-04-29T22:06:41.005Z,33.67
2023-04-29T22:09:09.057Z,33.43
2023-04-29T22:11:36.381Z,33.77
2023-04-29T22:14:03.754Z,32.57
2023-04-29T22:16:31.565Z,34.07
2023-04-29T22:18:58.963Z,34.37
2023-04-29T22:21:28.582Z,32.73
2023-04-29T22:23:56.350Z,34.50
2023-04-29T22:26:25.818Z,33.30
2023-04-29T22:28:53.102Z,32.03
2023-04-29T22:31:20.419Z,32.27
2023-04-29T22:33:47.768Z,32.20
2023-04-29T22:36:15.136Z,32.63
2023-04-29T22:38:42.423Z,32.33
2023-04-29T22:41:11.820Z,32.43
2023-04-29T22:43:39.016Z,32.20
2023-04-29T22:46:09.172Z,32.23
2023-04-29T22:48:36.449Z,33.10
2023-04-29T22:51:04.650Z,32.23
2023-04-29T22:53:31.853Z,32.10
2023-04-29T22:55:59.990Z,34.37
2023-04-29T22:58:27.292Z,33.33
2023-04-29T23:00:59.789Z,30.83
2023-04-29T23:03:27.840Z,32.83
2023-04-29T23:05:59.725Z,34.47
2023-04-29T23:08:29.912Z,33.53
2023-04-29T23:10:58.496Z,31.97
2023-04-29T23:13:25.689Z,32.53
2023-04-29T23:15:58.521Z,31.90
2023-04-29T23:18:26.131Z,31.97
2023-04-29T23:20:53.598Z,30.40
2023-04-29T23:23:20.867Z,29.93
2023-04-29T23:25:48.471Z,27.27
2023-04-29T23:28:16.600Z,24.17
2023-04-29T23:30:43.843Z,22.40
2023-04-29T23:33:11.090Z,22.27
2023-04-29T23:35:38.559Z,22.50
2023-04-29T23:38:06.124Z,24.20
2023-04-29T23:40:33.269Z,23.03
2023-04-29T23:43:02.879Z,24.43
2023-04-29T23:45:30.042Z,23.30
2023-04-29T23:47:57.502Z,20.43
2023-04-29T23:50:24.875Z,21.20
2023-04-29T23:52:52.836Z,21.87
2023-04-29T23:55:21.006Z,21.87
2023-04-29T23:57:48.453Z,22.23
